This is the latest recevied weather packets stored in our database for station/object W4OA. If no packets are shown the sender has not sent any weather packets the latest 10 day(s).
| Time | Temp. | Humidity | Pressure | Rain* | Wind** | Luminosity | Snow |
|---|---|---|---|---|---|---|---|
| 1777868399 | 10° C | 84% | 1013 hPa | 0 mm | - | 0 W/m² | - |
| 1777868098 | 10° C | 84% | 1013 hPa | 0 mm | - | 0 W/m² | - |
| 1777867799 | 10° C | 83% | 1013 hPa | 0 mm | - | 0 W/m² | - |
| 1777867498 | 10° C | 84% | 1013 hPa | 0 mm | - | 0 W/m² | - |
| 1777867198 | 10.56° C | 84% | 1013 hPa | 0 mm | - | 0 W/m² | - |
| 1777866900 | 10° C | 83% | 1013 hPa | 0 mm | - | 0 W/m² | - |
| 1777866598 | 10.56° C | 83% | 1013 hPa | 0 mm | - | 0 W/m² | - |
| 1777865699 | 10.56° C | 82% | 1013 hPa | 0 mm | - | 0 W/m² | - |
| 1777865398 | 10.56° C | 80% | 1013 hPa | 0 mm | - | 0 W/m² | - |
| 1777863299 | 11.11° C | 77% | 1013 hPa | 0 mm | - | 0 W/m² | - |
| 1777846199 | 22.22° C | 28% | 1011 hPa | 0 mm | - | 0 W/m² | - |
| 1777844698 | 22.78° C | 27% | 1011 hPa | 0 mm | - | 0 W/m² | - |
| 1777844098 | 22.78° C | 29% | 1011 hPa | 0 mm | - | 0 W/m² | - |
| 1777843799 | 23.33° C | 28% | 1011 hPa | 0 mm | - | 0 W/m² | - |
| 1777842298 | 22.78° C | 29% | 1012 hPa | 0 mm | - | 0 W/m² | - |
| 1777841999 | 23.33° C | 28% | 1012 hPa | 0 mm | - | 0 W/m² | - |
| 1777841699 | 23.33° C | 29% | 1012 hPa | 0 mm | - | 0 W/m² | - |
| 1777841099 | 23.89° C | 29% | 1012 hPa | 0 mm | - | 0 W/m² | - |
| 1777839898 | 22.78° C | 33% | 1012 hPa | 0 mm | - | 0 W/m² | - |
| 1777837498 | 22.22° C | 29% | 1013 hPa | 0 mm | - | 0 W/m² | - |
| 1777835099 | 21.67° C | 28% | 1013 hPa | 0 mm | - | 0 W/m² | - |
| 1777834199 | 21.11° C | 32% | 1013 hPa | 0 mm | - | 0 W/m² | - |
| 1777832999 | 21.11° C | 32% | 1013 hPa | 0 mm | - | 0 W/m² | - |
| 1777832699 | 21.11° C | 33% | 1013 hPa | 0 mm | - | 0 W/m² | - |
| 1777832399 | 20.56° C | 32% | 1014 hPa | 0 mm | - | 0 W/m² | - |
* Rain latest hour (hover to see other rain measurements)
** Current wind speed in m/s (hover to see current wind gust speed)